Dryad, Washington
Current Conditions -  °F | °C
As of 3:35 PM on Saturday 25 Oct 2014 (Local Time) from KCLS Reporting Station
Scattered Clouds Scattered Clouds  
Wind Chill: 59°   Ceiling: Unl
Heat Index: 59°   Visibility: 10mi
Dew Point: 55°   Wind: 17mph
Humidity: 88%   Direction: 190°S
Pressure: 29.26"   Gusts: 25mph
Location:  46.6561°N, 122.993°W
Report Text: KCLS 252235Z AUTO 19015G22KT 10SM FEW039 SCT047 15/13 A2926 RMK AO2
Loading
Personal Weather Stations






























Interactive Weather Map
Tropical Storm Tracking
New forecast layout! Learn more

10-Day Weather Forecast

Advertisements
Track Severe Weather on mobile